createdAt,value
2019-02-08T00:00:03.646Z," 7.98"
2019-02-08T00:05:00.974Z," 7.97"
2019-02-08T00:09:57.335Z," 7.85"
2019-02-08T00:14:52.670Z," 7.82"
2019-02-08T00:19:48.443Z," 7.80"
2019-02-08T00:24:45.232Z," 7.82"
2019-02-08T00:29:41.719Z," 7.79"
2019-02-08T00:34:37.245Z," 7.82"
2019-02-08T00:39:32.824Z," 7.80"
2019-02-08T00:44:28.410Z," 7.80"
2019-02-08T00:49:24.144Z," 7.79"
2019-02-08T00:54:19.721Z," 7.87"
2019-02-08T00:59:16.552Z," 7.76"
2019-02-08T01:04:11.848Z," 7.82"
2019-02-08T01:09:07.474Z," 7.60"
2019-02-08T01:14:03.983Z," 7.45"
2019-02-08T01:19:00.224Z," 7.31"
2019-02-08T01:23:56.036Z," 7.17"
2019-02-08T01:28:51.496Z," 7.13"
2019-02-08T01:33:47.077Z," 7.14"
2019-02-08T01:38:42.866Z," 7.07"
2019-02-08T01:43:38.560Z," 7.14"
2019-02-08T01:48:35.479Z," 7.18"
2019-02-08T01:53:30.781Z," 7.20"
2019-02-08T01:58:26.946Z," 7.33"
2019-02-08T02:03:23.710Z," 7.33"
2019-02-08T02:08:19.131Z," 7.33"
2019-02-08T02:13:16.133Z," 7.43"
2019-02-08T02:18:12.625Z," 7.54"
2019-02-08T02:23:08.113Z," 7.51"
2019-02-08T02:28:04.100Z," 7.57"
2019-02-08T02:32:59.768Z," 7.47"
2019-02-08T02:37:55.688Z," 7.54"
2019-02-08T02:42:51.473Z," 7.66"
2019-02-08T02:47:48.045Z," 7.61"
2019-02-08T02:52:43.382Z," 7.69"
2019-02-08T02:57:39.789Z," 7.66"
2019-02-08T03:02:35.560Z," 7.69"
2019-02-08T03:07:31.321Z," 7.57"
2019-02-08T03:12:26.863Z," 7.58"
2019-02-08T03:17:22.724Z," 7.54"
2019-02-08T03:22:18.500Z," 7.63"
2019-02-08T03:27:15.237Z," 7.53"
2019-02-08T03:32:11.837Z," 7.57"
2019-02-08T03:37:07.247Z," 7.43"
2019-02-08T03:42:03.944Z," 7.53"
2019-02-08T03:46:59.182Z," 7.47"
2019-02-08T03:51:55.031Z," 7.54"
2019-02-08T03:56:50.587Z," 7.51"
2019-02-08T04:01:46.137Z," 7.40"
2019-02-08T04:06:41.685Z," 7.40"
2019-02-08T04:11:37.549Z," 7.43"
2019-02-08T04:16:33.285Z," 7.50"
2019-02-08T04:21:28.721Z," 7.47"
2019-02-08T04:26:24.537Z," 7.45"
2019-02-08T04:31:20.256Z," 7.47"
2019-02-08T04:36:16.037Z," 7.50"
2019-02-08T04:41:11.912Z," 7.39"
2019-02-08T04:46:08.079Z," 7.43"
2019-02-08T04:51:03.879Z," 7.38"
2019-02-08T04:56:00.700Z," 7.32"
2019-02-08T05:00:56.220Z," 7.31"
2019-02-08T05:05:52.566Z," 7.31"
2019-02-08T05:10:48.221Z," 7.31"
2019-02-08T05:15:44.998Z," 7.33"
2019-02-08T05:20:40.334Z," 7.29"
2019-02-08T05:25:35.927Z," 7.32"
2019-02-08T05:30:32.161Z," 7.29"
2019-02-08T05:35:28.006Z," 7.38"
2019-02-08T05:40:23.846Z," 7.40"
2019-02-08T05:45:20.566Z," 7.40"
2019-02-08T05:50:15.990Z," 7.25"
2019-02-08T05:55:11.989Z," 7.17"
2019-02-08T06:00:07.771Z," 7.20"
2019-02-08T06:05:03.851Z," 7.15"
2019-02-08T06:10:00.669Z," 7.06"
2019-02-08T06:14:56.052Z," 7.10"
2019-02-08T06:19:51.670Z," 7.07"
2019-02-08T06:24:47.285Z," 7.05"
2019-02-08T06:29:42.803Z," 7.05"
2019-02-08T06:34:41.330Z," 7.14"
2019-02-08T06:39:38.036Z," 7.14"
2019-02-08T06:44:33.369Z," 7.15"
2019-02-08T06:49:29.006Z," 7.17"
2019-02-08T06:54:24.891Z," 7.17"
2019-02-08T06:59:20.584Z," 7.17"
2019-02-08T07:04:16.218Z," 7.14"
2019-02-08T07:09:12.299Z," 7.20"
2019-02-08T07:14:08.899Z," 7.02"
2019-02-08T07:19:05.194Z," 7.11"
2019-02-08T07:24:01.836Z," 7.17"
2019-02-08T07:28:56.954Z," 7.15"
2019-02-08T07:33:52.935Z," 7.24"
2019-02-08T07:38:49.636Z," 7.14"
2019-02-08T07:43:45.723Z," 7.10"
2019-02-08T07:48:41.375Z," 7.11"
2019-02-08T07:53:38.155Z," 7.10"
2019-02-08T07:58:33.763Z," 7.06"
2019-02-08T08:03:29.466Z," 7.15"
2019-02-08T08:08:25.298Z," 7.00"
2019-02-08T08:13:21.044Z," 7.23"
2019-02-08T08:18:17.581Z," 7.24"
2019-02-08T08:23:13.420Z," 7.36"
2019-02-08T08:28:09.192Z," 7.45"
2019-02-08T08:33:05.179Z," 7.48"
2019-02-08T08:38:02.106Z," 7.53"
2019-02-08T08:42:58.242Z," 7.60"
2019-02-08T08:47:54.293Z," 7.70"
2019-02-08T08:52:50.957Z," 7.76"
2019-02-08T08:57:46.437Z," 7.87"
2019-02-08T09:02:41.924Z," 7.93"
2019-02-08T09:07:38.167Z," 8.03"
2019-02-08T09:12:34.962Z," 8.19"
2019-02-08T09:17:30.697Z," 8.19"
2019-02-08T09:22:27.260Z," 8.31"
2019-02-08T09:27:23.043Z," 8.30"
2019-02-08T09:32:20.111Z," 8.31"
2019-02-08T09:37:16.795Z," 8.28"
2019-02-08T09:42:12.576Z," 8.34"
2019-02-08T09:47:09.444Z," 8.37"
2019-02-08T09:52:04.984Z," 8.49"
2019-02-08T09:57:00.852Z," 8.44"
2019-02-08T10:01:57.119Z," 8.63"
2019-02-08T10:06:53.026Z," 8.60"
2019-02-08T10:11:49.061Z," 8.61"
2019-02-08T10:16:44.789Z," 8.66"
2019-02-08T10:21:40.697Z," 8.66"
2019-02-08T10:26:36.451Z," 8.61"
2019-02-08T10:31:33.642Z," 8.79"
2019-02-08T10:36:29.131Z," 8.67"
2019-02-08T10:41:30.463Z," 8.84"
2019-02-08T10:46:24.921Z," 8.79"
2019-02-08T10:51:20.767Z," 8.91"
2019-02-08T10:56:16.449Z," 8.94"
2019-02-08T11:01:12.260Z," 9.02"
2019-02-08T11:06:08.026Z," 9.08"
2019-02-08T11:11:03.651Z," 9.11"
2019-02-08T11:16:00.041Z," 9.11"
2019-02-08T11:20:55.446Z," 9.04"
2019-02-08T11:25:51.659Z," 9.18"
2019-02-08T11:30:47.593Z," 9.23"
2019-02-08T11:35:44.122Z," 9.29"
2019-02-08T11:40:41.965Z," 9.40"
2019-02-08T11:45:38.559Z," 9.39"
2019-02-08T11:50:33.831Z," 9.43"
2019-02-08T11:55:29.592Z," 9.43"
2019-02-08T12:00:25.152Z," 9.47"
2019-02-08T12:05:21.256Z," 9.51"
2019-02-08T12:10:17.065Z," 9.50"
2019-02-08T12:15:12.969Z," 9.55"
2019-02-08T12:20:09.743Z," 9.51"
2019-02-08T12:25:06.145Z," 9.69"
2019-02-08T12:30:01.783Z," 9.48"
2019-02-08T12:34:57.652Z," 9.76"
2019-02-08T12:39:53.622Z," 9.80"
2019-02-08T12:44:50.115Z," 9.82"
2019-02-08T12:49:46.120Z," 9.84"
2019-02-08T12:54:42.573Z," 9.95"
2019-02-08T12:59:38.865Z," 9.95"
2019-02-08T13:04:34.756Z," 9.92"
2019-02-08T13:09:30.618Z," 9.99"
2019-02-08T13:14:27.208Z,10.01
2019-02-08T13:19:22.902Z,10.10
2019-02-08T13:24:18.525Z,10.02
2019-02-08T13:29:14.402Z,10.04
2019-02-08T13:34:10.316Z,10.07
2019-02-08T13:39:05.831Z,10.15
2019-02-08T13:44:02.076Z,10.02
2019-02-08T13:48:57.892Z,10.01
2019-02-08T13:53:53.574Z,10.04
2019-02-08T13:58:49.319Z,10.10
2019-02-08T14:03:45.564Z,10.12
2019-02-08T14:08:41.735Z,10.25
2019-02-08T14:13:40.790Z,10.26
2019-02-08T14:18:36.740Z,10.28
2019-02-08T14:23:32.240Z,10.28
2019-02-08T14:28:28.066Z,10.33
2019-02-08T14:33:23.802Z,10.33
2019-02-08T14:38:20.516Z,10.28
2019-02-08T14:43:15.857Z,10.15
2019-02-08T14:48:11.804Z,10.25
2019-02-08T14:53:07.838Z,10.22
2019-02-08T14:58:04.305Z,10.23
2019-02-08T15:02:59.784Z,10.10
2019-02-08T15:07:57.737Z,10.16
2019-02-08T15:12:53.080Z,10.07
2019-02-08T15:17:49.729Z,10.04
2019-02-08T15:22:45.053Z,10.10
2019-02-08T15:27:40.314Z,10.15
2019-02-08T15:32:36.301Z," 9.94"
2019-02-08T15:37:32.129Z," 9.95"
2019-02-08T15:42:28.720Z," 9.95"
2019-02-08T15:47:24.376Z," 9.86"
2019-02-08T15:52:20.289Z," 9.89"
2019-02-08T15:57:16.259Z," 9.92"
2019-02-08T16:02:11.684Z," 9.94"
2019-02-08T16:07:07.806Z," 9.83"
2019-02-08T16:12:03.573Z," 9.80"
2019-02-08T16:17:00.382Z," 9.76"
2019-02-08T16:21:55.712Z," 9.77"
2019-02-08T16:26:51.605Z," 9.72"
2019-02-08T16:31:47.752Z," 9.72"
2019-02-08T16:36:43.515Z," 9.59"
2019-02-08T16:41:39.166Z," 9.56"
2019-02-08T16:46:35.772Z," 9.62"
2019-02-08T16:51:31.586Z," 9.51"
2019-02-08T16:56:27.374Z," 9.51"
2019-02-08T17:01:23.834Z," 9.58"
2019-02-08T17:06:19.692Z," 9.58"
2019-02-08T17:11:16.341Z," 9.58"
2019-02-08T17:16:13.113Z," 9.56"
2019-02-08T17:21:08.480Z," 9.54"
2019-02-08T17:26:05.843Z," 9.64"
2019-02-08T17:31:01.651Z," 9.54"
2019-02-08T17:35:58.287Z," 9.56"
2019-02-08T17:40:53.898Z," 9.59"
2019-02-08T17:45:51.003Z," 9.58"
2019-02-08T17:50:46.509Z," 9.56"
2019-02-08T17:55:42.289Z," 9.50"
2019-02-08T18:00:39.265Z," 9.59"
2019-02-08T18:05:34.782Z," 9.64"
2019-02-08T18:10:30.447Z," 9.51"
2019-02-08T18:15:26.067Z," 9.55"
2019-02-08T18:20:22.238Z," 9.64"
2019-02-08T18:25:19.176Z," 9.64"
2019-02-08T18:30:14.746Z," 9.62"
2019-02-08T18:35:10.640Z," 9.55"
2019-02-08T18:40:08.183Z," 9.55"
2019-02-08T18:45:04.818Z," 9.62"
2019-02-08T18:50:01.165Z," 9.74"
2019-02-08T18:54:57.519Z," 9.68"
2019-02-08T18:59:53.042Z," 9.61"
2019-02-08T19:04:48.660Z," 9.69"
2019-02-08T19:09:44.344Z," 9.72"
2019-02-08T19:14:40.860Z," 9.74"
2019-02-08T19:19:37.571Z," 9.74"
2019-02-08T19:24:33.074Z," 9.77"
2019-02-08T19:29:28.818Z," 9.77"
2019-02-08T19:34:24.625Z," 9.80"
2019-02-08T19:39:21.740Z," 9.80"
2019-02-08T19:44:17.112Z," 9.80"
2019-02-08T19:49:13.859Z," 9.79"
2019-02-08T19:54:09.211Z," 9.80"
2019-02-08T19:59:05.868Z," 9.76"
2019-02-08T20:04:01.721Z," 9.76"
2019-02-08T20:08:58.980Z," 9.79"
2019-02-08T20:13:55.547Z," 9.79"
2019-02-08T20:18:51.058Z," 9.77"
2019-02-08T20:23:47.979Z," 9.89"
2019-02-08T20:28:43.562Z," 9.80"
2019-02-08T20:33:39.434Z," 9.77"
2019-02-08T20:38:36.285Z," 9.84"
2019-02-08T20:43:31.673Z," 9.83"
2019-02-08T20:48:28.096Z," 9.79"
2019-02-08T20:53:24.044Z," 9.95"
2019-02-08T20:58:20.754Z," 9.80"
2019-02-08T21:03:16.180Z," 9.84"
2019-02-08T21:08:11.954Z," 9.84"
2019-02-08T21:13:07.647Z," 9.82"
2019-02-08T21:18:04.308Z," 9.80"
2019-02-08T21:22:59.969Z," 9.80"
2019-02-08T21:27:55.771Z," 9.82"
2019-02-08T21:32:51.658Z," 9.84"
2019-02-08T21:37:47.212Z," 9.87"
2019-02-08T21:42:43.971Z," 9.91"
2019-02-08T21:47:39.698Z," 9.79"
2019-02-08T21:52:34.990Z," 9.91"
2019-02-08T21:57:31.899Z," 9.89"
2019-02-08T22:02:27.208Z," 9.84"
2019-02-08T22:07:22.977Z," 9.91"
2019-02-08T22:12:18.821Z," 9.95"
2019-02-08T22:17:15.609Z,10.04
2019-02-08T22:22:11.866Z," 9.98"
2019-02-08T22:27:07.582Z," 9.98"
2019-02-08T22:32:02.920Z," 9.83"
2019-02-08T22:36:58.568Z," 9.87"
2019-02-08T22:41:54.223Z," 9.94"
2019-02-08T22:46:49.951Z," 9.77"
2019-02-08T22:51:45.615Z," 9.68"
2019-02-08T22:56:41.553Z," 9.44"
2019-02-08T23:01:37.183Z," 9.22"
2019-02-08T23:06:32.946Z," 9.08"
2019-02-08T23:11:28.462Z," 8.85"
2019-02-08T23:16:24.101Z," 8.73"
2019-02-08T23:21:19.483Z," 8.64"
2019-02-08T23:26:14.986Z," 8.63"
2019-02-08T23:31:11.324Z," 8.61"
2019-02-08T23:36:07.147Z," 8.48"
2019-02-08T23:41:02.929Z," 8.42"
2019-02-08T23:45:58.518Z," 8.38"
2019-02-08T23:50:54.110Z," 8.31"
2019-02-08T23:55:49.753Z," 8.31"
